createdAt,value
2022-10-13T00:00:47.200Z,23.65
2022-10-13T00:03:15.064Z,22.70
2022-10-13T00:05:43.271Z,22.10
2022-10-13T00:08:13.487Z,22.25
2022-10-13T00:10:47.053Z,21.52
2022-10-13T00:13:15.319Z,21.80
2022-10-13T00:15:44.370Z,23.52
2022-10-13T00:18:12.167Z,22.63
2022-10-13T00:20:42.084Z,22.45
2022-10-13T00:23:10.054Z,22.50
2022-10-13T00:25:43.226Z,23.13
2022-10-13T00:28:11.443Z,22.83
2022-10-13T00:30:40.812Z,24.20
2022-10-13T00:33:09.123Z,21.42
2022-10-13T00:35:41.312Z,22.13
2022-10-13T00:38:09.260Z,21.15
2022-10-13T00:40:45.375Z,22.95
2022-10-13T00:43:16.520Z,22.35
2022-10-13T00:45:44.306Z,21.90
2022-10-13T00:48:12.324Z,23.05
2022-10-13T00:50:42.373Z,22.20
2022-10-13T00:53:11.154Z,22.00
2022-10-13T00:55:40.110Z,22.63
2022-10-13T00:58:11.514Z,22.55
2022-10-13T01:00:39.805Z,24.00
2022-10-13T01:03:07.578Z,22.13
2022-10-13T01:08:03.823Z,24.25
2022-10-13T01:10:37.318Z,22.52
2022-10-13T01:13:10.404Z,22.45
2022-10-13T01:15:41.694Z,22.92
2022-10-13T01:18:12.381Z,22.70
2022-10-13T01:20:51.814Z,23.02
2022-10-13T01:23:37.003Z,22.35
2022-10-13T01:26:17.315Z,22.30
2022-10-13T01:29:03.645Z,20.75
2022-10-13T01:31:35.781Z,23.05
2022-10-13T01:34:07.540Z,24.02
2022-10-13T01:36:39.553Z,26.17
2022-10-13T01:39:10.660Z,24.38
2022-10-13T01:41:39.973Z,24.38
2022-10-13T01:44:12.992Z,23.83
2022-10-13T01:46:45.196Z,24.92
2022-10-13T01:49:15.129Z,25.42
2022-10-13T01:51:43.436Z,23.42
2022-10-13T01:54:11.268Z,25.33
2022-10-13T01:56:39.326Z,22.85
2022-10-13T01:59:09.658Z,22.75
2022-10-13T02:01:46.750Z,22.15
2022-10-13T02:04:22.413Z,23.63
2022-10-13T02:06:53.066Z,22.27
2022-10-13T02:09:24.363Z,22.70
2022-10-13T02:11:56.227Z,23.38
2022-10-13T02:14:26.639Z,23.63
2022-10-13T02:16:55.880Z,23.48
2022-10-13T02:19:25.471Z,22.90
2022-10-13T02:21:54.134Z,23.65
2022-10-13T02:24:21.874Z,23.33
2022-10-13T02:26:50.200Z,23.13
2022-10-13T02:29:20.226Z,22.63
2022-10-13T02:31:48.084Z,23.80
2022-10-13T02:34:16.144Z,23.27
2022-10-13T02:36:48.823Z,23.13
2022-10-13T02:39:17.800Z,22.60
2022-10-13T02:41:45.787Z,23.52
2022-10-13T02:44:13.719Z,24.23
2022-10-13T02:46:41.721Z,24.75
2022-10-13T02:49:10.618Z,24.38
2022-10-13T02:51:40.324Z,23.55
2022-10-13T02:54:10.194Z,25.38
2022-10-13T02:56:38.164Z,23.13
2022-10-13T02:59:05.975Z,24.05
2022-10-13T03:01:34.128Z,24.55
2022-10-13T03:04:01.866Z,26.02
2022-10-13T03:06:29.702Z,23.67
2022-10-13T03:08:57.496Z,24.00
2022-10-13T03:11:26.840Z,24.92
2022-10-13T03:13:54.810Z,25.75
2022-10-13T03:16:22.647Z,23.70
2022-10-13T03:18:50.482Z,22.85
2022-10-13T03:21:18.346Z,24.42
2022-10-13T03:23:46.145Z,24.13
2022-10-13T03:26:13.970Z,24.80
2022-10-13T03:28:43.330Z,23.63
2022-10-13T03:31:12.877Z,22.92
2022-10-13T03:33:41.153Z,24.20
2022-10-13T03:36:09.314Z,24.48
2022-10-13T03:38:37.535Z,22.88
2022-10-13T03:41:06.090Z,25.55
2022-10-13T03:43:34.527Z,24.33
2022-10-13T03:46:05.646Z,25.10
2022-10-13T03:48:34.078Z,25.08
2022-10-13T03:51:05.226Z,25.30
2022-10-13T03:53:33.342Z,25.23
2022-10-13T03:56:02.175Z,25.08
2022-10-13T03:58:32.962Z,24.05
2022-10-13T04:01:05.412Z,25.50
2022-10-13T04:03:35.603Z,23.25
2022-10-13T04:06:03.794Z,23.25
2022-10-13T04:08:32.374Z,24.63
2022-10-13T04:11:00.719Z,24.10
2022-10-13T04:13:28.784Z,25.40
2022-10-13T04:15:56.549Z,24.23
2022-10-13T04:18:25.915Z,24.73
2022-10-13T04:20:53.707Z,34.03
2022-10-13T04:23:21.543Z,36.30
2022-10-13T04:25:49.380Z,27.17
2022-10-13T04:28:17.705Z,24.75
2022-10-13T04:30:49.260Z,26.25
2022-10-13T04:33:17.608Z,26.33
2022-10-13T04:35:47.154Z,25.27
2022-10-13T04:38:15.992Z,25.70
2022-10-13T04:40:43.932Z,24.98
2022-10-13T04:43:11.734Z,25.52
2022-10-13T04:45:40.083Z,24.63
2022-10-13T04:48:09.931Z,24.13
2022-10-13T04:50:37.806Z,25.02
2022-10-13T04:53:07.156Z,25.42
2022-10-13T04:55:36.951Z,24.77
2022-10-13T04:58:05.144Z,24.83
2022-10-13T05:00:32.980Z,25.00
2022-10-13T05:03:00.979Z,24.85
2022-10-13T05:05:28.835Z,25.77
2022-10-13T05:07:56.614Z,25.13
2022-10-13T05:10:25.890Z,24.88
2022-10-13T05:12:54.759Z,25.13
2022-10-13T05:15:24.170Z,24.60
2022-10-13T05:17:52.305Z,31.17
2022-10-13T05:20:20.309Z,29.05
2022-10-13T05:22:48.101Z,26.15
2022-10-13T05:25:16.023Z,24.23
2022-10-13T05:27:46.448Z,25.23
2022-10-13T05:30:14.629Z,25.83
2022-10-13T05:32:42.386Z,26.67
2022-10-13T05:35:10.585Z,25.67
2022-10-13T05:37:41.507Z,25.02
2022-10-13T05:40:09.948Z,25.02
2022-10-13T05:42:38.040Z,26.05
2022-10-13T05:45:09.210Z,26.55
2022-10-13T05:47:37.242Z,25.27
2022-10-13T05:50:15.841Z,25.63
2022-10-13T05:52:44.428Z,26.02
2022-10-13T05:55:20.266Z,26.00
2022-10-13T05:57:50.814Z,27.35
2022-10-13T06:00:22.134Z,27.10
2022-10-13T06:02:51.241Z,25.38
2022-10-13T06:05:20.830Z,25.80
2022-10-13T06:07:53.583Z,29.35
2022-10-13T06:10:22.847Z,27.15
2022-10-13T06:12:50.793Z,25.02
2022-10-13T06:15:18.641Z,22.92
2022-10-13T06:17:47.761Z,24.08
2022-10-13T06:20:16.054Z,25.05
2022-10-13T06:22:43.932Z,25.40
2022-10-13T06:25:11.978Z,24.90
2022-10-13T06:27:39.994Z,23.00
2022-10-13T06:30:08.574Z,23.98
2022-10-13T06:32:38.181Z,22.25
2022-10-13T06:35:08.276Z,21.50
2022-10-13T06:37:36.057Z,24.27
2022-10-13T06:40:05.656Z,23.63
2022-10-13T06:42:34.804Z,23.27
2022-10-13T06:45:10.258Z,24.95
2022-10-13T06:47:41.892Z,23.73
2022-10-13T06:50:11.542Z,24.10
2022-10-13T06:52:39.900Z,23.02
2022-10-13T06:55:08.011Z,25.00
2022-10-13T06:57:35.941Z,23.70
2022-10-13T07:00:07.608Z,25.10
2022-10-13T07:02:36.232Z,23.17
2022-10-13T07:05:04.404Z,23.40
2022-10-13T07:07:33.612Z,23.17
2022-10-13T07:10:01.519Z,22.08
2022-10-13T07:12:29.759Z,24.33
2022-10-13T07:14:57.672Z,24.50
2022-10-13T07:17:26.581Z,24.92
2022-10-13T07:19:57.807Z,23.60
2022-10-13T07:22:27.032Z,22.38
2022-10-13T07:24:56.430Z,21.73
2022-10-13T07:27:26.275Z,21.77
2022-10-13T07:29:54.211Z,21.08
2022-10-13T07:32:22.281Z,20.85
2022-10-13T07:34:53.252Z,21.48
2022-10-13T07:37:21.784Z,23.15
2022-10-13T07:39:49.901Z,22.50
2022-10-13T07:42:19.478Z,20.77
2022-10-13T07:44:47.630Z,20.30
2022-10-13T07:47:15.405Z,19.95
2022-10-13T07:49:44.351Z,19.67
2022-10-13T07:52:12.328Z,19.05
2022-10-13T07:54:40.118Z,19.38
2022-10-13T07:57:08.023Z,17.95
2022-10-13T07:59:37.268Z,17.55
2022-10-13T08:02:05.439Z,20.13
2022-10-13T08:04:33.435Z,19.75
2022-10-13T08:07:02.379Z,19.50
2022-10-13T08:09:30.476Z,18.20
2022-10-13T08:12:00.863Z,18.15
2022-10-13T08:14:30.300Z,17.60
2022-10-13T08:16:59.743Z,16.65
2022-10-13T08:19:29.078Z,16.75
2022-10-13T08:21:58.849Z,17.70
2022-10-13T08:24:28.599Z,16.38
2022-10-13T08:26:56.450Z,16.63
2022-10-13T08:29:24.747Z,17.55
2022-10-13T08:31:53.514Z,15.27
2022-10-13T08:34:23.546Z,16.13
2022-10-13T08:36:54.831Z,19.05
2022-10-13T08:39:25.023Z,15.70
2022-10-13T08:41:53.690Z,17.30
2022-10-13T08:45:02.606Z,17.42
2022-10-13T08:47:16.474Z,16.17
2022-10-13T08:49:46.371Z,13.77
2022-10-13T08:52:18.460Z,12.77
2022-10-13T08:54:46.561Z,14.07
2022-10-13T08:57:15.240Z,12.68
2022-10-13T08:59:43.276Z,13.05
2022-10-13T09:02:13.170Z,9.55
2022-10-13T09:04:42.029Z,8.38
2022-10-13T09:07:15.054Z,7.25
2022-10-13T09:09:43.079Z,8.63
2022-10-13T09:12:12.209Z,9.45
2022-10-13T09:14:40.859Z,10.82
2022-10-13T09:17:17.742Z,10.07
2022-10-13T09:19:46.439Z,10.35
2022-10-13T09:22:24.167Z,8.45
2022-10-13T09:25:05.674Z,8.18
2022-10-13T09:27:42.446Z,8.98
2022-10-13T09:30:25.827Z,9.50
2022-10-13T09:32:57.154Z,9.50
2022-10-13T09:35:25.123Z,10.48
2022-10-13T09:38:04.531Z,10.25
2022-10-13T09:40:32.889Z,9.93
2022-10-13T09:43:02.006Z,10.65
2022-10-13T09:45:31.129Z,10.35
2022-10-13T09:48:00.088Z,9.18
2022-10-13T09:50:29.097Z,8.40
2022-10-13T09:53:11.634Z,10.27
2022-10-13T09:55:41.405Z,11.07
2022-10-13T09:58:13.780Z,10.80
2022-10-13T10:00:42.819Z,10.77
2022-10-13T10:03:14.413Z,10.05
2022-10-13T10:05:45.858Z,9.85
2022-10-13T10:08:16.460Z,9.48
2022-10-13T10:10:47.400Z,10.70
2022-10-13T10:13:21.089Z,10.18
2022-10-13T10:15:51.860Z,10.90
2022-10-13T10:18:22.514Z,8.60
2022-10-13T10:20:57.867Z,9.25
2022-10-13T10:23:31.305Z,8.68
2022-10-13T10:26:02.522Z,7.38
2022-10-13T10:28:38.927Z,8.65
2022-10-13T10:31:12.822Z,8.50
2022-10-13T10:33:46.507Z,8.43
2022-10-13T10:36:17.900Z,8.90
2022-10-13T10:38:51.895Z,9.15
2022-10-13T10:41:27.975Z,8.60
2022-10-13T10:43:57.008Z,7.72
2022-10-13T10:46:25.335Z,8.50
2022-10-13T10:48:55.626Z,8.02
2022-10-13T10:51:26.204Z,8.82
2022-10-13T10:53:55.726Z,12.20
2022-10-13T10:56:28.495Z,12.82
2022-10-13T10:59:03.819Z,8.63
2022-10-13T11:01:34.837Z,9.43
2022-10-13T11:04:18.313Z,8.20
2022-10-13T11:06:46.138Z,8.05
2022-10-13T11:09:13.914Z,10.98
2022-10-13T11:11:43.725Z,10.13
2022-10-13T11:14:32.747Z,7.40
2022-10-13T11:17:21.926Z,8.82
2022-10-13T11:19:50.434Z,8.25
2022-10-13T11:22:19.659Z,9.38
2022-10-13T11:24:48.994Z,9.60
2022-10-13T11:27:25.749Z,9.75
2022-10-13T11:29:56.438Z,8.68
2022-10-13T11:32:45.016Z,9.80
2022-10-13T11:35:21.424Z,9.98
2022-10-13T11:38:05.991Z,7.80
2022-10-13T11:40:36.280Z,8.98
2022-10-13T11:43:21.852Z,8.00
2022-10-13T11:45:58.854Z,8.82
2022-10-13T11:48:41.775Z,8.45
2022-10-13T11:51:16.442Z,9.90
2022-10-13T11:53:48.502Z,9.80
2022-10-13T11:56:20.526Z,9.57
2022-10-13T11:58:48.608Z,9.43
2022-10-13T12:01:19.135Z,9.68
2022-10-13T12:03:48.137Z,10.88
2022-10-13T12:06:24.441Z,10.50
2022-10-13T12:08:53.206Z,9.43
2022-10-13T12:11:25.929Z,11.95
2022-10-13T12:13:54.095Z,11.98
2022-10-13T12:16:24.072Z,12.45
2022-10-13T12:18:52.147Z,11.40
2022-10-13T12:21:21.280Z,9.82
2022-10-13T12:23:49.358Z,14.57
2022-10-13T12:26:18.106Z,12.30
2022-10-13T12:28:50.123Z,10.50
2022-10-13T12:31:20.373Z,11.38
2022-10-13T12:33:54.962Z,10.93
2022-10-13T12:36:24.212Z,9.27
2022-10-13T12:38:53.269Z,8.27
2022-10-13T12:41:25.772Z,8.25
2022-10-13T12:43:54.376Z,7.97
2022-10-13T12:46:38.534Z,7.88
2022-10-13T12:49:08.500Z,8.45
2022-10-13T12:51:38.020Z,7.75
2022-10-13T12:54:09.796Z,9.30
2022-10-13T12:56:37.952Z,8.00
2022-10-13T12:59:06.035Z,8.40
2022-10-13T13:01:35.106Z,7.70
2022-10-13T13:04:04.027Z,9.65
2022-10-13T13:06:34.750Z,9.07
2022-10-13T13:09:09.992Z,8.32
2022-10-13T13:11:39.364Z,7.97
2022-10-13T13:14:34.150Z,8.13
2022-10-13T13:17:09.664Z,14.18
2022-10-13T13:19:38.173Z,11.23
2022-10-13T13:22:07.928Z,9.25
2022-10-13T13:24:40.100Z,9.73
2022-10-13T13:27:22.030Z,8.57
2022-10-13T13:29:50.500Z,9.95
2022-10-13T13:32:20.349Z,10.48
2022-10-13T13:34:49.343Z,11.00
2022-10-13T13:37:32.848Z,9.90
2022-10-13T13:40:01.347Z,7.85
2022-10-13T13:42:29.564Z,7.97
2022-10-13T13:44:57.371Z,9.27
2022-10-13T13:47:26.233Z,8.95
2022-10-13T13:49:54.691Z,9.95
2022-10-13T13:52:22.976Z,8.93
2022-10-13T13:54:52.712Z,9.45
2022-10-13T13:57:21.067Z,9.15
2022-10-13T13:59:49.375Z,8.40
2022-10-13T14:02:18.671Z,9.60
2022-10-13T14:04:46.802Z,9.05
2022-10-13T14:07:15.042Z,9.32
2022-10-13T14:09:43.112Z,8.02
2022-10-13T14:12:12.969Z,10.25
2022-10-13T14:14:40.793Z,10.50
2022-10-13T14:17:10.549Z,9.75
2022-10-13T14:19:38.354Z,10.15
2022-10-13T14:22:09.473Z,10.40
2022-10-13T14:24:37.743Z,10.20
2022-10-13T14:27:05.815Z,8.48
2022-10-13T14:29:35.134Z,13.10
2022-10-13T14:32:03.051Z,9.20
2022-10-13T14:34:31.281Z,9.20
2022-10-13T14:36:59.393Z,8.85
2022-10-13T14:39:27.352Z,8.07
2022-10-13T14:41:55.514Z,10.35
2022-10-13T14:44:24.590Z,9.27
2022-10-13T14:46:53.997Z,9.43
2022-10-13T14:49:21.939Z,9.80
2022-10-13T14:51:52.205Z,9.00
2022-10-13T14:54:20.067Z,12.52
2022-10-13T14:56:48.035Z,14.20
2022-10-13T14:59:16.128Z,10.73
2022-10-13T15:01:44.819Z,8.52
2022-10-13T15:04:14.133Z,8.50
2022-10-13T15:06:42.354Z,9.65
2022-10-13T15:09:11.899Z,10.23
2022-10-13T15:11:40.188Z,9.65
2022-10-13T15:14:09.767Z,10.07
2022-10-13T15:16:38.137Z,9.85
2022-10-13T15:19:06.440Z,9.43
2022-10-13T15:21:35.607Z,13.60
2022-10-13T15:24:04.505Z,14.35
2022-10-13T15:26:32.582Z,12.32
2022-10-13T15:29:00.379Z,15.20
2022-10-13T15:31:30.913Z,10.40
2022-10-13T15:33:58.936Z,10.57
2022-10-13T15:36:26.864Z,10.90
2022-10-13T15:38:56.314Z,11.55
2022-10-13T15:41:25.542Z,10.00
2022-10-13T15:43:54.058Z,16.35
2022-10-13T15:46:26.252Z,25.98
2022-10-13T15:48:55.822Z,13.50
2022-10-13T15:51:24.683Z,14.95
2022-10-13T15:53:52.559Z,13.13
2022-10-13T15:56:22.460Z,11.55
2022-10-13T15:58:50.410Z,11.85
2022-10-13T16:01:18.366Z,11.90
2022-10-13T16:03:46.422Z,12.43
2022-10-13T16:06:14.471Z,11.63
2022-10-13T16:08:44.045Z,12.45
2022-10-13T16:11:13.043Z,12.45
2022-10-13T16:13:42.753Z,12.32
2022-10-13T16:16:10.886Z,13.18
2022-10-13T16:18:39.384Z,17.58
2022-10-13T16:21:14.500Z,27.33
2022-10-13T16:23:46.243Z,33.05
2022-10-13T16:26:14.439Z,33.33
2022-10-13T16:28:43.687Z,19.40
2022-10-13T16:31:13.571Z,22.70
2022-10-13T16:33:43.465Z,39.78
2022-10-13T16:36:12.451Z,66.05
2022-10-13T16:38:41.326Z,61.75
2022-10-13T16:41:10.852Z,24.05
2022-10-13T16:43:39.211Z,19.00
2022-10-13T16:46:09.548Z,17.77
2022-10-13T16:48:37.418Z,15.55
2022-10-13T16:51:06.187Z,16.77
2022-10-13T16:53:36.726Z,16.65
2022-10-13T16:56:05.140Z,17.65
2022-10-13T16:58:33.170Z,15.93
2022-10-13T17:01:06.408Z,15.32
2022-10-13T17:03:35.780Z,16.95
2022-10-13T17:06:03.606Z,17.35
2022-10-13T17:08:32.110Z,18.02
2022-10-13T17:11:02.992Z,16.35
2022-10-13T17:13:32.143Z,15.95
2022-10-13T17:16:02.327Z,17.77
2022-10-13T17:18:30.161Z,17.65
2022-10-13T17:21:00.316Z,23.10
2022-10-13T17:23:28.607Z,20.70
2022-10-13T17:25:57.021Z,20.90
2022-10-13T17:28:25.059Z,25.92
2022-10-13T17:31:00.532Z,30.27
2022-10-13T17:33:29.422Z,21.60
2022-10-13T17:36:02.491Z,19.73
2022-10-13T17:38:30.580Z,18.90
2022-10-13T17:41:01.221Z,18.35
2022-10-13T17:43:29.192Z,17.20
2022-10-13T17:46:12.114Z,17.80
2022-10-13T17:48:46.030Z,19.95
2022-10-13T17:51:16.104Z,18.40
2022-10-13T17:53:44.531Z,17.38
2022-10-13T17:56:16.616Z,17.88
2022-10-13T17:58:45.249Z,18.73
2022-10-13T18:01:16.126Z,17.83
2022-10-13T18:03:47.268Z,67.35
2022-10-13T18:06:17.467Z,69.75
2022-10-13T18:08:45.778Z,36.33
2022-10-13T18:11:15.038Z,20.40
2022-10-13T18:13:43.811Z,20.48
2022-10-13T18:16:12.759Z,21.00
2022-10-13T18:18:40.719Z,20.02
2022-10-13T18:21:09.066Z,19.80
2022-10-13T18:23:38.943Z,18.70
2022-10-13T18:26:07.992Z,18.90
2022-10-13T18:28:40.051Z,18.98
2022-10-13T18:31:11.278Z,17.60
2022-10-13T18:33:39.629Z,17.40
2022-10-13T18:36:15.317Z,18.75
2022-10-13T18:38:45.529Z,19.30
2022-10-13T18:41:13.725Z,18.60
2022-10-13T18:43:42.067Z,19.52
2022-10-13T18:46:11.226Z,24.30
2022-10-13T18:48:39.253Z,24.65
2022-10-13T18:51:08.279Z,22.63
2022-10-13T18:53:36.529Z,23.08
2022-10-13T18:56:07.344Z,22.77
2022-10-13T18:58:35.393Z,23.40
2022-10-13T19:01:03.509Z,24.13
2022-10-13T19:03:32.639Z,25.23
2022-10-13T19:06:00.626Z,23.27
2022-10-13T19:08:30.310Z,25.15
2022-10-13T19:10:58.670Z,26.13
2022-10-13T19:13:28.041Z,28.02
2022-10-13T19:16:00.429Z,28.95
2022-10-13T19:18:28.683Z,29.42
2022-10-13T19:20:56.973Z,28.70
2022-10-13T19:23:24.953Z,29.23
2022-10-13T19:25:53.005Z,26.05
2022-10-13T19:28:28.554Z,28.42
2022-10-13T19:31:01.113Z,29.33
2022-10-13T19:33:32.001Z,28.30
2022-10-13T19:36:02.972Z,41.53
2022-10-13T19:38:31.379Z,43.30
2022-10-13T19:41:02.662Z,46.67
2022-10-13T19:43:30.867Z,33.95
2022-10-13T19:46:00.238Z,30.60
2022-10-13T19:48:28.935Z,27.98
2022-10-13T19:50:57.458Z,30.88
2022-10-13T19:53:26.195Z,27.52
2022-10-13T19:55:55.321Z,27.50
2022-10-13T19:58:24.014Z,28.92
2022-10-13T20:00:51.983Z,27.58
2022-10-13T20:03:21.259Z,27.23
2022-10-13T20:05:51.840Z,27.33
2022-10-13T20:08:19.773Z,26.33
2022-10-13T20:10:47.614Z,25.10
2022-10-13T20:13:15.471Z,24.50
2022-10-13T20:15:45.044Z,25.30
2022-10-13T20:18:14.321Z,25.10
2022-10-13T20:20:44.283Z,24.45
2022-10-13T20:23:12.036Z,23.17
2022-10-13T20:25:40.829Z,21.67
2022-10-13T20:28:08.600Z,21.88
2022-10-13T20:30:40.129Z,20.67
2022-10-13T20:33:09.577Z,20.80
2022-10-13T20:35:37.360Z,20.90
2022-10-13T20:38:12.848Z,20.30
2022-10-13T20:40:41.984Z,20.75
2022-10-13T20:43:15.434Z,20.08
2022-10-13T20:45:43.233Z,20.80
2022-10-13T20:50:38.797Z,21.35
2022-10-13T20:53:08.661Z,21.85
2022-10-13T20:55:40.960Z,20.67
2022-10-13T20:58:09.722Z,21.35
2022-10-13T21:00:37.891Z,20.77
2022-10-13T21:03:05.884Z,36.83
2022-10-13T21:05:33.645Z,25.85
2022-10-13T21:08:01.841Z,29.55
2022-10-13T21:10:32.613Z,25.77
2022-10-13T21:13:00.464Z,21.92
2022-10-13T21:15:30.947Z,22.10
2022-10-13T21:17:58.808Z,22.55
2022-10-13T21:20:26.656Z,22.35
2022-10-13T21:22:54.590Z,22.08
2022-10-13T21:25:22.358Z,22.70
2022-10-13T21:27:53.507Z,21.83
2022-10-13T21:30:21.449Z,22.38
2022-10-13T21:32:49.304Z,21.55
2022-10-13T21:35:17.421Z,21.58
2022-10-13T21:37:45.334Z,21.35
2022-10-13T21:40:13.813Z,22.75
2022-10-13T21:42:41.657Z,21.23
2022-10-13T21:45:12.890Z,22.88
2022-10-13T21:47:40.734Z,22.35
2022-10-13T21:50:09.858Z,22.30
2022-10-13T21:52:38.336Z,22.38
2022-10-13T21:55:06.642Z,22.45
2022-10-13T21:57:34.551Z,22.20
2022-10-13T22:00:02.342Z,20.80
2022-10-13T22:02:41.834Z,21.52
2022-10-13T22:05:11.288Z,20.52
2022-10-13T22:07:39.333Z,21.35
2022-10-13T22:10:07.349Z,24.02
2022-10-13T22:12:35.280Z,23.73
2022-10-13T22:15:03.412Z,24.08
2022-10-13T22:17:32.116Z,22.60
2022-10-13T22:20:01.390Z,23.95
2022-10-13T22:22:31.103Z,23.25
2022-10-13T22:24:59.130Z,22.70
2022-10-13T22:27:29.017Z,22.67
2022-10-13T22:29:56.774Z,23.45
2022-10-13T22:34:52.110Z,23.85
2022-10-13T22:37:21.550Z,25.55
2022-10-13T22:39:49.594Z,25.98
2022-10-13T22:42:17.746Z,26.08
2022-10-13T22:44:45.509Z,26.33
2022-10-13T22:47:13.511Z,28.38
2022-10-13T22:49:41.219Z,25.92
2022-10-13T22:52:10.201Z,25.75
2022-10-13T22:54:39.469Z,22.70
2022-10-13T22:57:07.296Z,23.00
2022-10-13T22:59:35.272Z,24.35
2022-10-13T23:02:03.317Z,23.83
2022-10-13T23:04:32.471Z,24.75
2022-10-13T23:07:00.317Z,23.25
2022-10-13T23:09:28.201Z,26.65
2022-10-13T23:11:59.833Z,26.52
2022-10-13T23:14:28.722Z,25.88
2022-10-13T23:16:56.590Z,25.52
2022-10-13T23:19:24.560Z,25.77
2022-10-13T23:21:52.373Z,26.50
2022-10-13T23:24:20.216Z,25.30
2022-10-13T23:26:48.071Z,26.92
2022-10-13T23:29:17.862Z,26.17
2022-10-13T23:31:45.804Z,27.80
2022-10-13T23:34:13.714Z,25.08
2022-10-13T23:36:41.492Z,25.70
2022-10-13T23:39:09.511Z,26.65
2022-10-13T23:41:37.776Z,25.00
2022-10-13T23:44:05.881Z,26.02
2022-10-13T23:46:35.014Z,26.33
2022-10-13T23:49:02.916Z,26.10
2022-10-13T23:51:30.985Z,26.80
2022-10-13T23:53:59.490Z,28.02
2022-10-13T23:56:27.641Z,27.20
2022-10-13T23:58:55.500Z,25.30
